createdAt,value
2023-05-02T00:01:26.093Z,3.30
2023-05-02T00:06:31.520Z,2.90
2023-05-02T00:11:34.190Z,3.90
2023-05-02T00:16:36.790Z,3.60
2023-05-02T00:21:39.382Z,3.80
2023-05-02T00:26:41.907Z,3.20
2023-05-02T00:31:44.595Z,3.80
2023-05-02T00:36:48.755Z,3.80
2023-05-02T00:42:01.924Z,4.10
2023-05-02T00:47:04.800Z,4.00
2023-05-02T00:52:09.005Z,3.90
2023-05-02T00:57:11.615Z,4.40
2023-05-02T01:02:48.957Z,4.40
2023-05-02T01:08:15.014Z,4.10
2023-05-02T01:13:24.164Z,4.00
2023-05-02T01:18:36.883Z,4.10
2023-05-02T01:24:09.601Z,4.30
2023-05-02T01:29:15.935Z,4.70
2023-05-02T01:34:21.455Z,3.60
2023-05-02T01:39:26.278Z,3.90
2023-05-02T01:44:30.428Z,3.80
2023-05-02T01:49:36.319Z,3.30
2023-05-02T01:54:43.190Z,3.40
2023-05-02T01:59:48.337Z,2.70
2023-05-02T02:04:54.678Z,3.20
2023-05-02T02:09:57.890Z,3.00
2023-05-02T02:15:16.717Z,3.50
2023-05-02T02:20:20.670Z,2.70
2023-05-02T02:25:26.137Z,3.40
2023-05-02T02:30:28.905Z,3.00
2023-05-02T02:35:38.479Z,3.40
2023-05-02T02:40:51.588Z,3.30
2023-05-02T02:46:29.450Z,3.90
2023-05-02T02:51:46.900Z,3.50
2023-05-02T02:57:04.922Z,3.20
2023-05-02T03:02:12.345Z,3.40
2023-05-02T03:07:15.173Z,3.50
2023-05-02T03:12:17.854Z,3.30
2023-05-02T03:17:20.403Z,3.10
2023-05-02T03:22:23.083Z,2.70
2023-05-02T03:27:25.949Z,3.20
2023-05-02T03:32:28.682Z,4.00
2023-05-02T03:37:31.333Z,5.90
2023-05-02T03:42:39.995Z,4.50
2023-05-02T03:47:42.580Z,4.00
2023-05-02T03:52:45.278Z,5.20
2023-05-02T03:57:47.979Z,5.40
2023-05-02T04:02:51.330Z,3.90
2023-05-02T04:07:54.655Z,3.40
2023-05-02T04:12:57.461Z,5.00
2023-05-02T04:18:00.488Z,4.30
2023-05-02T04:23:03.190Z,3.20
2023-05-02T04:28:06.630Z,3.90
2023-05-02T04:33:09.260Z,2.90
2023-05-02T04:38:11.876Z,3.90
2023-05-02T04:43:14.446Z,4.10
2023-05-02T04:48:16.954Z,3.80
2023-05-02T04:53:22.793Z,4.00
2023-05-02T04:58:25.539Z,4.50
2023-05-02T05:03:33.361Z,4.60
2023-05-02T05:08:36.120Z,3.90
2023-05-02T05:13:39.061Z,4.10
2023-05-02T05:18:41.846Z,4.60
2023-05-02T05:23:46.204Z,4.40
2023-05-02T05:28:50.349Z,3.50
2023-05-02T05:33:53.076Z,3.00
2023-05-02T05:38:55.755Z,3.60
2023-05-02T05:43:58.940Z,3.50
2023-05-02T05:49:01.566Z,4.70
2023-05-02T05:54:04.253Z,3.90
2023-05-02T05:59:06.806Z,3.70
2023-05-02T06:04:09.426Z,3.70
2023-05-02T06:09:12.202Z,5.10
2023-05-02T06:14:14.883Z,3.80
2023-05-02T06:19:17.607Z,5.10
2023-05-02T06:24:20.234Z,4.80
2023-05-02T06:29:22.807Z,3.50
2023-05-02T06:34:25.449Z,4.70
2023-05-02T06:39:28.057Z,4.70
2023-05-02T06:44:30.616Z,5.20
2023-05-02T06:49:33.736Z,5.20
2023-05-02T06:54:36.376Z,5.00
2023-05-02T06:59:38.914Z,5.60
2023-05-02T07:04:41.546Z,6.00
2023-05-02T07:09:44.237Z,5.80
2023-05-02T07:14:47.166Z,5.70
2023-05-02T07:19:49.762Z,5.50
2023-05-02T07:25:01.907Z,5.60
2023-05-02T07:30:06.613Z,5.40
2023-05-02T07:35:09.498Z,5.40
2023-05-02T07:40:12.280Z,5.70
2023-05-02T07:45:14.875Z,5.50
2023-05-02T07:50:17.561Z,5.40
2023-05-02T07:55:21.472Z,4.50
2023-05-02T08:00:24.092Z,5.30
2023-05-02T08:05:26.953Z,5.30
2023-05-02T08:10:29.527Z,5.20
2023-05-02T08:15:32.237Z,5.40
2023-05-02T08:20:35.057Z,4.70
2023-05-02T08:25:38.060Z,5.80
2023-05-02T08:30:40.881Z,6.10
2023-05-02T08:35:43.453Z,5.70
2023-05-02T08:40:46.155Z,5.00
2023-05-02T08:45:50.284Z,5.40
2023-05-02T08:50:54.886Z,4.60
2023-05-02T08:55:58.747Z,6.50
2023-05-02T09:01:04.623Z,4.80
2023-05-02T09:06:18.796Z,4.50
2023-05-02T09:11:22.192Z,4.60
2023-05-02T09:16:27.174Z,5.10
2023-05-02T09:21:40.255Z,5.20
2023-05-02T09:26:56.561Z,6.00
2023-05-02T09:31:59.273Z,6.00
2023-05-02T09:37:06.750Z,7.00
2023-05-02T09:42:09.322Z,5.50
2023-05-02T09:47:27.656Z,5.10
2023-05-02T09:52:30.589Z,7.40
2023-05-02T09:57:41.582Z,5.60
2023-05-02T10:02:44.575Z,4.80
2023-05-02T10:07:47.785Z,6.10
2023-05-02T10:12:53.581Z,5.90
2023-05-02T10:18:02.261Z,6.20
2023-05-02T10:23:06.083Z,6.70
2023-05-02T10:28:11.158Z,6.40
2023-05-02T10:37:16.922Z,4.70
2023-05-02T10:42:21.005Z,5.60
2023-05-02T10:47:27.223Z,5.70
2023-05-02T10:52:36.806Z,4.90
2023-05-02T10:57:58.406Z,6.10
2023-05-02T11:03:03.746Z,6.20
2023-05-02T11:08:15.545Z,5.50
2023-05-02T11:13:58.977Z,5.30
2023-05-02T11:19:01.716Z,5.60
2023-05-02T11:24:40.316Z,5.70
2023-05-02T11:30:04.764Z,4.90
2023-05-02T11:35:08.226Z,5.50
2023-05-02T11:40:13.231Z,4.00
2023-05-02T11:45:16.743Z,4.50
2023-05-02T11:50:19.391Z,5.20
2023-05-02T11:55:22.422Z,3.80
2023-05-02T12:00:28.378Z,4.90
2023-05-02T12:05:31.446Z,4.40
2023-05-02T12:10:37.909Z,4.10
2023-05-02T12:15:41.279Z,3.90
2023-05-02T12:20:45.328Z,3.70
2023-05-02T12:25:49.183Z,3.80
2023-05-02T12:30:52.289Z,3.20
2023-05-02T12:35:54.897Z,3.20
2023-05-02T12:40:57.891Z,4.00
2023-05-02T12:46:10.978Z,4.40
2023-05-02T12:51:24.360Z,4.20
2023-05-02T12:56:32.441Z,4.00
2023-05-02T13:01:36.100Z,4.50
2023-05-02T13:06:39.166Z,4.70
2023-05-02T13:11:42.600Z,4.00
2023-05-02T13:16:45.379Z,4.40
2023-05-02T13:21:48.575Z,5.80
2023-05-02T13:26:51.854Z,7.90
2023-05-02T13:31:54.449Z,5.70
2023-05-02T13:36:57.343Z,3.50
2023-05-02T13:41:59.914Z,3.10
2023-05-02T13:47:02.506Z,4.30
2023-05-02T13:52:05.031Z,3.20
2023-05-02T13:57:07.650Z,3.80
2023-05-02T14:02:10.760Z,3.80
2023-05-02T14:07:13.458Z,5.10
2023-05-02T14:12:16.145Z,5.50
2023-05-02T14:17:18.760Z,5.90
2023-05-02T14:22:21.536Z,4.80
2023-05-02T14:27:25.796Z,6.20
2023-05-02T14:32:28.456Z,5.60
2023-05-02T14:37:31.155Z,5.50
2023-05-02T14:42:33.757Z,5.00
2023-05-02T14:47:36.807Z,3.40
2023-05-02T14:52:39.537Z,3.60
2023-05-02T14:57:42.396Z,3.30
2023-05-02T15:02:45.058Z,4.80
2023-05-02T15:07:47.935Z,3.30
2023-05-02T15:12:50.995Z,3.40
2023-05-02T15:17:53.752Z,3.70
2023-05-02T15:22:56.392Z,3.20
2023-05-02T15:27:59.376Z,3.90
2023-05-02T15:33:03.163Z,3.00
2023-05-02T15:38:07.050Z,2.70
2023-05-02T15:43:09.748Z,2.70
2023-05-02T15:48:12.351Z,2.30
2023-05-02T15:53:19.430Z,2.60
2023-05-02T15:58:22.279Z,2.50
2023-05-02T16:03:25.034Z,2.80
2023-05-02T16:08:28.623Z,2.40
2023-05-02T16:13:31.221Z,1.90
2023-05-02T16:18:34.087Z,1.90
2023-05-02T16:23:37.190Z,3.50
2023-05-02T16:28:39.814Z,3.00
2023-05-02T16:33:42.986Z,1.70
2023-05-02T16:38:46.220Z,3.10
2023-05-02T16:43:49.985Z,2.60
2023-05-02T16:48:52.537Z,2.50
2023-05-02T16:53:55.114Z,2.50
2023-05-02T16:58:57.715Z,2.50
2023-05-02T17:04:00.598Z,1.20
2023-05-02T17:09:04.141Z,2.30
2023-05-02T17:14:06.927Z,1.50
2023-05-02T17:19:09.544Z,2.20
2023-05-02T17:24:12.187Z,1.90
2023-05-02T17:29:14.981Z,2.00
2023-05-02T17:34:17.582Z,2.30
2023-05-02T17:39:20.177Z,2.70
2023-05-02T17:44:23.516Z,1.90
2023-05-02T17:49:26.148Z,2.20
2023-05-02T17:54:28.756Z,2.30
2023-05-02T17:59:31.482Z,1.70
2023-05-02T18:04:34.588Z,1.60
2023-05-02T18:09:37.157Z,1.70
2023-05-02T18:14:39.669Z,1.40
2023-05-02T18:19:42.262Z,2.30
2023-05-02T18:24:44.914Z,1.60
2023-05-02T18:29:47.976Z,1.90
2023-05-02T18:34:50.638Z,2.40
2023-05-02T18:39:54.461Z,2.70
2023-05-02T18:44:57.101Z,2.30
2023-05-02T18:49:59.834Z,0.80
2023-05-02T18:55:03.612Z,1.00
2023-05-02T19:00:07.658Z,1.30
2023-05-02T19:05:10.729Z,0.90
2023-05-02T19:10:13.332Z,1.10
2023-05-02T19:15:16.105Z,1.00
2023-05-02T19:20:19.176Z,0.70
2023-05-02T19:25:21.759Z,0.50
2023-05-02T19:30:24.610Z,1.10
2023-05-02T19:35:27.707Z,1.00
2023-05-02T19:40:31.311Z,1.10
2023-05-02T19:45:33.866Z,1.30
2023-05-02T19:50:38.062Z,1.30
2023-05-02T19:55:40.820Z,1.20
2023-05-02T20:00:43.387Z,0.90
2023-05-02T20:05:46.417Z,1.10
2023-05-02T20:10:48.983Z,0.60
2023-05-02T20:15:53.495Z,0.70
2023-05-02T20:20:56.594Z,1.20
2023-05-02T20:25:59.664Z,0.70
2023-05-02T20:31:02.801Z,1.10
2023-05-02T20:36:06.132Z,1.30
2023-05-02T20:41:12.636Z,1.50
2023-05-02T20:46:16.636Z,1.50
2023-05-02T20:51:19.513Z,0.90
2023-05-02T20:56:23.152Z,0.70
2023-05-02T21:01:26.564Z,1.00
2023-05-02T21:06:31.298Z,0.80
2023-05-02T21:11:33.981Z,0.70
2023-05-02T21:16:36.755Z,1.00
2023-05-02T21:21:39.407Z,1.20
2023-05-02T21:26:42.604Z,1.50
2023-05-02T21:31:46.314Z,2.20
2023-05-02T21:36:49.209Z,1.90
2023-05-02T21:41:52.119Z,1.50
2023-05-02T21:46:54.756Z,1.80
2023-05-02T21:51:58.465Z,1.80
2023-05-02T21:57:02.764Z,1.10
2023-05-02T22:02:05.658Z,1.10
2023-05-02T22:07:08.484Z,0.80
2023-05-02T22:12:11.136Z,0.90
2023-05-02T22:17:13.775Z,1.50
2023-05-02T22:22:16.321Z,1.30
2023-05-02T22:27:19.012Z,1.10
2023-05-02T22:32:22.588Z,1.70
2023-05-02T22:37:25.406Z,1.20
2023-05-02T22:42:28.058Z,1.00
2023-05-02T22:47:30.890Z,2.60
2023-05-02T22:52:37.825Z,3.50
2023-05-02T22:57:42.212Z,2.50
2023-05-02T23:02:45.395Z,4.00
2023-05-02T23:07:49.514Z,4.40
2023-05-02T23:12:52.068Z,8.70
2023-05-02T23:17:54.676Z,3.60
2023-05-02T23:22:57.600Z,3.30
2023-05-02T23:28:00.224Z,2.10
2023-05-02T23:33:02.834Z,2.60
2023-05-02T23:38:08.184Z,3.50
2023-05-02T23:43:11.495Z,4.80
2023-05-02T23:48:14.002Z,4.70
2023-05-02T23:53:16.584Z,7.80
2023-05-02T23:58:19.164Z,4.20
